createdAt,value
2022-10-14T00:00:46.058Z,14.30
2022-10-14T00:03:13.043Z,14.30
2022-10-14T00:05:41.246Z,14.40
2022-10-14T00:08:09.645Z,14.40
2022-10-14T00:10:39.979Z,14.40
2022-10-14T00:13:06.977Z,14.40
2022-10-14T00:15:41.552Z,14.40
2022-10-14T00:18:09.613Z,14.30
2022-10-14T00:20:36.965Z,14.30
2022-10-14T00:23:04.404Z,14.40
2022-10-14T00:25:31.469Z,14.40
2022-10-14T00:27:58.210Z,14.40
2022-10-14T00:30:25.026Z,14.40
2022-10-14T00:32:51.899Z,14.40
2022-10-14T00:35:18.658Z,14.40
2022-10-14T00:37:45.402Z,14.40
2022-10-14T00:40:12.782Z,14.30
2022-10-14T00:42:39.597Z,14.40
2022-10-14T00:45:16.877Z,14.40
2022-10-14T00:47:44.762Z,14.40
2022-10-14T00:50:13.565Z,14.40
2022-10-14T00:52:40.834Z,14.40
2022-10-14T00:55:13.923Z,14.40
2022-10-14T00:57:40.936Z,14.40
2022-10-14T01:00:11.366Z,14.40
2022-10-14T01:02:38.510Z,14.40
2022-10-14T01:05:07.108Z,14.40
2022-10-14T01:07:42.867Z,14.40
2022-10-14T01:10:27.572Z,14.40
2022-10-14T01:13:15.777Z,14.40
2022-10-14T01:16:20.207Z,14.40
2022-10-14T01:19:25.330Z,14.40
2022-10-14T01:22:04.923Z,14.40
2022-10-14T01:24:49.593Z,14.30
2022-10-14T01:27:38.713Z,14.30
2022-10-14T01:30:19.396Z,14.30
2022-10-14T01:33:02.816Z,14.30
2022-10-14T01:35:36.393Z,14.30
2022-10-14T01:38:32.780Z,14.30
2022-10-14T01:41:11.571Z,14.20
2022-10-14T01:43:41.104Z,14.20
2022-10-14T01:46:10.431Z,14.30
2022-10-14T01:48:41.882Z,14.30
2022-10-14T01:51:15.691Z,14.30
2022-10-14T01:53:46.012Z,14.20
2022-10-14T01:56:15.037Z,14.30
2022-10-14T01:58:43.250Z,14.30
2022-10-14T02:01:10.406Z,14.30
2022-10-14T02:03:45.266Z,14.30
2022-10-14T02:06:30.881Z,14.20
2022-10-14T02:09:12.991Z,14.20
2022-10-14T02:12:10.531Z,14.30
2022-10-14T02:14:50.851Z,14.30
2022-10-14T02:17:29.866Z,14.30
2022-10-14T02:20:15.848Z,14.30
2022-10-14T02:22:48.533Z,14.20
2022-10-14T02:25:31.660Z,14.30
2022-10-14T02:28:01.092Z,14.30
2022-10-14T02:30:31.210Z,14.20
2022-10-14T02:33:00.432Z,14.30
2022-10-14T02:35:29.071Z,14.30
2022-10-14T02:37:57.820Z,14.30
2022-10-14T02:40:49.214Z,14.20
2022-10-14T02:43:16.896Z,14.20
2022-10-14T02:45:44.212Z,14.30
2022-10-14T02:48:11.930Z,14.30
2022-10-14T02:50:38.802Z,14.20
2022-10-14T02:53:05.681Z,14.20
2022-10-14T02:55:32.407Z,14.20
2022-10-14T02:57:59.161Z,14.20
2022-10-14T03:00:25.994Z,14.20
2022-10-14T03:02:52.702Z,14.20
2022-10-14T03:05:19.605Z,14.20
2022-10-14T03:07:46.305Z,14.20
2022-10-14T03:10:13.068Z,14.10
2022-10-14T03:12:39.956Z,14.20
2022-10-14T03:15:07.662Z,14.20
2022-10-14T03:17:34.470Z,14.20
2022-10-14T03:20:01.217Z,14.10
2022-10-14T03:22:28.008Z,14.20
2022-10-14T03:24:54.721Z,14.10
2022-10-14T03:27:21.607Z,14.20
2022-10-14T03:29:48.521Z,14.10
2022-10-14T03:32:15.367Z,14.10
2022-10-14T03:34:42.190Z,14.10
2022-10-14T03:37:09.187Z,14.10
2022-10-14T03:39:35.971Z,14.10
2022-10-14T03:42:03.738Z,14.10
2022-10-14T03:44:30.480Z,14.10
2022-10-14T03:46:57.395Z,14.10
2022-10-14T03:49:24.540Z,14.10
2022-10-14T03:51:51.490Z,14.10
2022-10-14T03:54:18.265Z,14.00
2022-10-14T03:56:45.100Z,14.10
2022-10-14T03:59:11.961Z,14.00
2022-10-14T04:01:38.775Z,14.10
2022-10-14T04:04:05.646Z,14.10
2022-10-14T04:06:32.516Z,14.00
2022-10-14T04:08:59.252Z,14.10
2022-10-14T04:11:26.049Z,14.10
2022-10-14T04:13:52.736Z,14.10
2022-10-14T04:16:20.314Z,14.00
2022-10-14T04:18:47.260Z,14.10
2022-10-14T04:21:14.063Z,14.10
2022-10-14T04:23:40.858Z,14.10
2022-10-14T04:26:09.381Z,14.10
2022-10-14T04:28:37.039Z,14.10
2022-10-14T04:31:04.931Z,14.10
2022-10-14T04:33:31.832Z,14.10
2022-10-14T04:35:59.967Z,14.00
2022-10-14T04:38:27.849Z,14.10
2022-10-14T04:40:54.871Z,14.00
2022-10-14T04:43:22.307Z,14.00
2022-10-14T04:45:49.221Z,14.00
2022-10-14T04:48:16.610Z,14.00
2022-10-14T04:50:43.412Z,14.00
2022-10-14T04:53:13.461Z,14.10
2022-10-14T04:55:40.859Z,14.00
2022-10-14T04:58:08.157Z,14.00
2022-10-14T05:00:34.952Z,14.00
2022-10-14T05:03:01.731Z,14.00
2022-10-14T05:05:28.601Z,14.00
2022-10-14T05:07:55.595Z,13.90
2022-10-14T05:10:22.723Z,14.00
2022-10-14T05:12:49.618Z,13.90
2022-10-14T05:15:17.000Z,14.00
2022-10-14T05:17:44.919Z,14.00
2022-10-14T05:20:12.622Z,14.00
2022-10-14T05:22:39.916Z,14.00
2022-10-14T05:25:07.227Z,14.00
2022-10-14T05:27:34.069Z,14.00
2022-10-14T05:30:01.084Z,14.10
2022-10-14T05:32:28.008Z,14.10
2022-10-14T05:34:55.264Z,14.00
2022-10-14T05:37:22.027Z,14.00
2022-10-14T05:39:48.845Z,14.10
2022-10-14T05:42:15.608Z,14.00
2022-10-14T05:44:42.329Z,14.00
2022-10-14T05:47:10.310Z,14.10
2022-10-14T05:49:37.078Z,14.10
2022-10-14T05:52:04.189Z,14.10
2022-10-14T05:54:31.344Z,14.10
2022-10-14T05:56:58.276Z,14.10
2022-10-14T05:59:25.346Z,14.10
2022-10-14T06:01:52.211Z,14.10
2022-10-14T06:04:21.279Z,14.10
2022-10-14T06:06:48.079Z,14.10
2022-10-14T06:09:15.373Z,14.10
2022-10-14T06:11:42.211Z,14.10
2022-10-14T06:14:09.299Z,14.10
2022-10-14T06:16:36.154Z,14.10
2022-10-14T06:19:03.234Z,14.20
2022-10-14T06:21:30.229Z,14.20
2022-10-14T06:23:57.030Z,14.20
2022-10-14T06:26:23.762Z,14.20
2022-10-14T06:28:50.649Z,14.20
2022-10-14T06:31:17.755Z,14.20
2022-10-14T06:33:45.017Z,14.20
2022-10-14T06:36:12.150Z,14.20
2022-10-14T06:38:38.932Z,14.30
2022-10-14T06:41:05.704Z,14.30
2022-10-14T06:43:32.721Z,14.30
2022-10-14T06:45:59.882Z,14.40
2022-10-14T06:48:26.733Z,14.40
2022-10-14T06:50:53.576Z,14.40
2022-10-14T06:53:20.704Z,14.40
2022-10-14T06:55:47.580Z,14.40
2022-10-14T06:58:14.325Z,14.40
2022-10-14T07:00:47.116Z,14.50
2022-10-14T07:03:15.147Z,14.60
2022-10-14T07:05:41.913Z,14.60
2022-10-14T07:08:11.292Z,14.60
2022-10-14T07:10:41.326Z,14.70
2022-10-14T07:13:08.389Z,14.80
2022-10-14T07:15:36.199Z,14.90
2022-10-14T07:18:04.703Z,14.90
2022-10-14T07:20:31.653Z,14.80
2022-10-14T07:22:58.637Z,14.90
2022-10-14T07:25:25.911Z,14.90
2022-10-14T07:27:55.763Z,15.20
2022-10-14T07:30:22.752Z,15.30
2022-10-14T07:32:49.513Z,15.30
2022-10-14T07:35:16.847Z,15.60
2022-10-14T07:37:43.789Z,15.40
2022-10-14T07:40:11.510Z,15.30
2022-10-14T07:42:38.501Z,15.30
2022-10-14T07:45:07.341Z,15.10
2022-10-14T07:47:34.443Z,14.90
2022-10-14T07:50:02.067Z,15.00
2022-10-14T07:52:29.234Z,15.00
2022-10-14T07:54:56.127Z,15.10
2022-10-14T07:57:24.026Z,15.10
2022-10-14T07:59:52.674Z,15.10
2022-10-14T08:02:19.652Z,15.20
2022-10-14T08:04:47.086Z,15.30
2022-10-14T08:07:16.718Z,15.30
2022-10-14T08:09:43.968Z,15.50
2022-10-14T08:12:11.116Z,15.30
2022-10-14T08:14:37.862Z,15.30
2022-10-14T08:17:04.905Z,15.40
2022-10-14T08:19:31.869Z,15.50
2022-10-14T08:21:59.822Z,15.60
2022-10-14T08:24:26.710Z,15.80
2022-10-14T08:27:01.339Z,15.80
2022-10-14T08:29:28.539Z,15.70
2022-10-14T08:31:55.401Z,15.80
2022-10-14T08:34:24.508Z,15.70
2022-10-14T08:36:52.034Z,15.70
2022-10-14T08:39:19.793Z,15.70
2022-10-14T08:42:05.564Z,15.90
2022-10-14T08:44:51.928Z,15.40
2022-10-14T08:47:24.248Z,15.70
2022-10-14T08:50:05.414Z,15.70
2022-10-14T08:52:59.328Z,16.40
2022-10-14T08:55:39.871Z,16.40
2022-10-14T08:58:21.939Z,16.30
2022-10-14T09:00:52.095Z,16.40
2022-10-14T09:03:23.022Z,16.00
2022-10-14T09:06:02.340Z,16.10
2022-10-14T09:08:35.822Z,16.40
2022-10-14T09:11:03.073Z,16.50
2022-10-14T09:13:37.992Z,16.40
2022-10-14T09:16:17.516Z,16.50
2022-10-14T09:19:04.352Z,16.30
2022-10-14T09:21:58.310Z,16.40
2022-10-14T09:24:28.386Z,16.20
2022-10-14T09:27:00.716Z,16.30
2022-10-14T09:29:55.189Z,16.00
2022-10-14T09:32:41.280Z,16.00
2022-10-14T09:35:29.546Z,16.20
2022-10-14T09:37:56.390Z,16.40
2022-10-14T09:40:33.913Z,16.10
2022-10-14T09:43:11.810Z,16.30
2022-10-14T09:45:47.779Z,16.50
2022-10-14T09:48:26.651Z,16.40
2022-10-14T09:50:56.852Z,16.40
2022-10-14T09:53:41.152Z,16.60
2022-10-14T09:56:10.057Z,16.80
2022-10-14T09:58:45.258Z,16.50
2022-10-14T10:01:24.337Z,16.50
2022-10-14T10:03:53.013Z,16.60
2022-10-14T10:06:27.976Z,17.00
2022-10-14T10:08:57.630Z,17.30
2022-10-14T10:11:35.942Z,17.40
2022-10-14T10:14:27.193Z,17.70
2022-10-14T10:17:12.743Z,17.90
2022-10-14T10:19:45.552Z,17.30
2022-10-14T10:22:22.940Z,17.30
2022-10-14T10:24:52.636Z,16.90
2022-10-14T10:27:30.399Z,16.70
2022-10-14T10:29:57.204Z,16.70
2022-10-14T10:32:47.132Z,16.70
2022-10-14T10:35:29.798Z,16.50
2022-10-14T10:38:47.223Z,16.80
2022-10-14T10:41:36.552Z,17.00
2022-10-14T10:44:06.522Z,17.40
2022-10-14T10:46:36.619Z,17.90
2022-10-14T10:49:34.719Z,17.70
2022-10-14T10:52:11.551Z,17.50
2022-10-14T10:54:41.313Z,17.70
2022-10-14T10:57:46.174Z,17.70
2022-10-14T11:00:17.252Z,17.40
2022-10-14T11:02:55.056Z,18.00
2022-10-14T11:05:49.644Z,18.30
2022-10-14T11:09:07.429Z,18.10
2022-10-14T11:12:17.744Z,18.40
2022-10-14T11:14:50.637Z,18.30
2022-10-14T11:17:44.697Z,18.40
2022-10-14T11:20:43.415Z,18.30
2022-10-14T11:23:28.587Z,18.40
2022-10-14T11:26:15.661Z,18.20
2022-10-14T11:29:03.459Z,17.80
2022-10-14T11:31:33.269Z,18.00
2022-10-14T11:34:05.826Z,17.90
2022-10-14T11:36:42.837Z,17.80
2022-10-14T11:39:33.331Z,18.00
2022-10-14T11:42:27.892Z,18.10
2022-10-14T11:45:21.367Z,18.40
2022-10-14T11:47:50.812Z,18.40
2022-10-14T11:50:26.386Z,18.30
2022-10-14T11:53:04.132Z,18.60
2022-10-14T11:55:39.146Z,18.60
2022-10-14T11:58:24.267Z,18.70
2022-10-14T12:00:56.641Z,19.10
2022-10-14T12:03:38.395Z,19.20
2022-10-14T12:06:36.994Z,19.20
2022-10-14T12:09:39.477Z,19.20
2022-10-14T12:12:11.720Z,19.10
2022-10-14T12:15:02.042Z,18.80
2022-10-14T12:17:38.790Z,18.80
2022-10-14T12:20:19.729Z,19.00
2022-10-14T12:22:49.290Z,18.50
2022-10-14T12:25:20.933Z,18.60
2022-10-14T12:27:49.742Z,18.60
2022-10-14T12:30:38.987Z,18.50
2022-10-14T12:33:11.657Z,18.30
2022-10-14T12:35:52.126Z,18.30
2022-10-14T12:38:20.966Z,18.40
2022-10-14T12:40:49.251Z,18.50
2022-10-14T12:43:23.666Z,18.90
2022-10-14T12:46:00.665Z,18.90
2022-10-14T12:48:33.741Z,18.90
2022-10-14T12:51:24.252Z,19.10
2022-10-14T12:54:13.680Z,19.00
2022-10-14T12:56:53.665Z,18.60
2022-10-14T12:59:30.507Z,18.80
2022-10-14T13:02:04.797Z,18.60
2022-10-14T13:04:32.840Z,18.20
2022-10-14T13:07:42.323Z,18.20
2022-10-14T13:10:46.212Z,18.20
2022-10-14T13:13:40.141Z,18.30
2022-10-14T13:16:25.843Z,18.20
2022-10-14T13:18:54.013Z,18.30
2022-10-14T13:21:49.875Z,18.30
2022-10-14T13:24:30.948Z,18.30
2022-10-14T13:27:19.410Z,18.40
2022-10-14T13:29:52.571Z,18.20
2022-10-14T13:32:55.025Z,18.10
2022-10-14T13:35:31.130Z,18.10
2022-10-14T13:38:04.050Z,17.90
2022-10-14T13:40:37.615Z,17.70
2022-10-14T13:43:28.787Z,17.70
2022-10-14T13:46:04.966Z,17.80
2022-10-14T13:48:45.346Z,17.80
2022-10-14T13:51:24.554Z,17.80
2022-10-14T13:54:21.187Z,17.80
2022-10-14T13:57:20.164Z,17.70
2022-10-14T14:02:36.174Z,17.80
2022-10-14T14:05:03.245Z,17.80
2022-10-14T14:08:14.255Z,17.80
2022-10-14T14:10:25.375Z,17.80
2022-10-14T14:12:52.656Z,17.80
2022-10-14T14:15:28.974Z,17.70
2022-10-14T14:17:56.005Z,17.80
2022-10-14T14:20:29.152Z,17.80
2022-10-14T14:22:58.340Z,17.90
2022-10-14T14:25:40.431Z,17.80
2022-10-14T14:28:15.700Z,17.80
2022-10-14T14:30:55.400Z,17.80
2022-10-14T14:33:31.340Z,17.90
2022-10-14T14:36:12.096Z,17.90
2022-10-14T14:38:59.705Z,17.70
2022-10-14T14:41:28.518Z,17.70
2022-10-14T14:44:24.048Z,17.60
2022-10-14T14:46:46.307Z,17.60
2022-10-14T14:49:17.594Z,17.50
2022-10-14T14:51:45.407Z,17.60
2022-10-14T14:54:18.544Z,17.50
2022-10-14T14:56:49.888Z,17.50
2022-10-14T14:59:38.047Z,17.40
2022-10-14T15:02:19.121Z,17.50
2022-10-14T15:04:48.419Z,17.30
2022-10-14T15:07:21.508Z,17.30
2022-10-14T15:09:55.730Z,17.30
2022-10-14T15:12:27.218Z,17.20
2022-10-14T15:15:00.143Z,17.00
2022-10-14T15:17:29.979Z,16.90
2022-10-14T15:20:01.374Z,16.80
2022-10-14T15:22:33.153Z,16.80
2022-10-14T15:25:06.517Z,16.70
2022-10-14T15:27:34.816Z,16.50
2022-10-14T15:30:39.788Z,16.40
2022-10-14T15:33:23.815Z,16.30
2022-10-14T15:36:01.955Z,16.20
2022-10-14T15:41:05.402Z,16.10
2022-10-14T15:43:33.843Z,15.90
2022-10-14T15:46:19.252Z,16.00
2022-10-14T15:48:58.548Z,15.80
2022-10-14T15:51:30.559Z,15.80
2022-10-14T15:53:58.509Z,15.80
2022-10-14T15:56:25.262Z,15.80
2022-10-14T15:58:52.033Z,15.80
2022-10-14T16:01:23.792Z,15.70
2022-10-14T16:03:55.269Z,15.70
2022-10-14T16:06:24.230Z,15.70
2022-10-14T16:08:51.145Z,15.70
2022-10-14T16:11:28.686Z,15.70
2022-10-14T16:13:55.581Z,15.80
2022-10-14T16:16:36.012Z,15.80
2022-10-14T16:19:03.389Z,15.80
2022-10-14T16:21:31.033Z,15.80
2022-10-14T16:24:01.124Z,15.80
2022-10-14T16:26:29.229Z,15.90
2022-10-14T16:28:56.607Z,15.90
2022-10-14T16:31:23.905Z,15.80
2022-10-14T16:33:51.787Z,15.80
2022-10-14T16:36:18.655Z,15.80
2022-10-14T16:38:45.400Z,15.80
2022-10-14T16:41:12.534Z,15.80
2022-10-14T16:43:39.414Z,15.80
2022-10-14T16:46:09.317Z,15.80
2022-10-14T16:48:38.849Z,15.80
2022-10-14T16:51:06.288Z,15.80
2022-10-14T16:53:43.522Z,15.80
2022-10-14T16:56:33.186Z,15.80
2022-10-14T16:59:01.282Z,15.80
2022-10-14T17:01:28.521Z,15.80
2022-10-14T17:03:56.543Z,15.80
2022-10-14T17:06:24.569Z,15.80
2022-10-14T17:08:51.780Z,15.80
2022-10-14T17:11:19.162Z,15.80
2022-10-14T17:13:46.121Z,15.70
2022-10-14T17:16:13.176Z,15.80
2022-10-14T17:18:40.033Z,15.70
2022-10-14T17:21:10.519Z,15.80
2022-10-14T17:23:41.139Z,15.80
2022-10-14T17:26:11.976Z,15.80
2022-10-14T17:28:39.790Z,15.80
2022-10-14T17:31:10.319Z,15.80
2022-10-14T17:33:37.988Z,15.80
2022-10-14T17:36:06.456Z,15.80
2022-10-14T17:38:34.742Z,15.80
2022-10-14T17:41:06.674Z,15.80
2022-10-14T17:43:33.888Z,15.70
2022-10-14T17:46:05.010Z,15.70
2022-10-14T17:48:32.885Z,15.70
2022-10-14T17:50:59.899Z,15.70
2022-10-14T17:53:26.719Z,15.80
2022-10-14T17:55:56.845Z,15.80
2022-10-14T17:58:24.729Z,15.80
2022-10-14T18:00:51.700Z,15.80
2022-10-14T18:03:18.653Z,15.80
2022-10-14T18:05:48.125Z,15.80
2022-10-14T18:08:15.885Z,15.80
2022-10-14T18:10:42.698Z,15.80
2022-10-14T18:13:09.445Z,15.80
2022-10-14T18:15:36.413Z,15.80
2022-10-14T18:18:03.420Z,15.90
2022-10-14T18:20:31.965Z,15.90
2022-10-14T18:23:02.700Z,15.90
2022-10-14T18:25:29.815Z,15.80
2022-10-14T18:27:56.650Z,15.90
2022-10-14T18:30:23.665Z,15.80
2022-10-14T18:32:54.150Z,15.80
2022-10-14T18:35:22.285Z,15.90
2022-10-14T18:37:49.257Z,15.80
2022-10-14T18:40:18.225Z,15.90
2022-10-14T18:42:45.081Z,15.90
2022-10-14T18:45:11.856Z,15.90
2022-10-14T18:47:38.695Z,15.90
2022-10-14T18:50:05.890Z,15.90
2022-10-14T18:52:33.123Z,15.90
2022-10-14T18:54:59.958Z,15.80
2022-10-14T18:57:27.344Z,15.80
2022-10-14T18:59:54.205Z,15.90
2022-10-14T19:02:21.306Z,15.90
2022-10-14T19:04:48.423Z,15.90
2022-10-14T19:07:15.294Z,15.90
2022-10-14T19:09:42.176Z,15.90
2022-10-14T19:12:27.669Z,15.90
2022-10-14T19:14:54.553Z,15.80
2022-10-14T19:17:21.429Z,15.80
2022-10-14T19:19:48.228Z,15.80
2022-10-14T19:22:15.169Z,15.80
2022-10-14T19:24:41.943Z,15.80
2022-10-14T19:27:08.745Z,15.80
2022-10-14T19:29:35.619Z,15.90
2022-10-14T19:32:02.887Z,15.80
2022-10-14T19:34:29.839Z,15.90
2022-10-14T19:36:56.962Z,15.90
2022-10-14T19:39:23.917Z,15.90
2022-10-14T19:41:50.945Z,15.90
2022-10-14T19:44:17.803Z,15.80
2022-10-14T19:46:45.501Z,15.90
2022-10-14T19:49:14.399Z,15.90
2022-10-14T19:51:41.658Z,15.90
2022-10-14T19:54:10.677Z,15.90
2022-10-14T19:56:37.419Z,15.90
2022-10-14T19:59:04.234Z,15.90
2022-10-14T20:01:32.037Z,15.90
2022-10-14T20:04:00.865Z,15.80
2022-10-14T20:06:32.912Z,15.80
2022-10-14T20:08:59.802Z,15.80
2022-10-14T20:11:27.505Z,15.90
2022-10-14T20:13:54.611Z,15.90
2022-10-14T20:16:21.599Z,15.90
2022-10-14T20:18:48.566Z,15.90
2022-10-14T20:21:16.572Z,15.90
2022-10-14T20:23:43.997Z,15.90
2022-10-14T20:26:17.474Z,15.90
2022-10-14T20:28:44.847Z,15.90
2022-10-14T20:31:17.259Z,15.90
2022-10-14T20:33:44.171Z,15.90
2022-10-14T20:36:13.774Z,15.90
2022-10-14T20:38:41.583Z,16.00
2022-10-14T20:41:14.896Z,16.00
2022-10-14T20:43:43.138Z,15.90
2022-10-14T20:46:10.392Z,16.00
2022-10-14T20:48:40.431Z,16.00
2022-10-14T20:51:13.261Z,16.00
2022-10-14T20:56:11.082Z,15.90
2022-10-14T20:58:38.328Z,16.00
2022-10-14T21:01:31.638Z,16.00
2022-10-14T21:04:01.882Z,15.90
2022-10-14T21:06:28.983Z,15.90
2022-10-14T21:08:56.956Z,16.00
2022-10-14T21:11:24.791Z,16.00
2022-10-14T21:13:54.005Z,16.00
2022-10-14T21:16:22.400Z,16.00
2022-10-14T21:18:55.233Z,16.00
2022-10-14T21:21:26.220Z,16.00
2022-10-14T21:23:53.256Z,15.90
2022-10-14T21:26:20.127Z,15.90
2022-10-14T21:28:46.968Z,15.90
2022-10-14T21:31:17.570Z,15.90
2022-10-14T21:33:47.514Z,15.90
2022-10-14T21:36:16.575Z,15.90
2022-10-14T21:38:43.753Z,15.90
2022-10-14T21:41:11.836Z,15.90
2022-10-14T21:43:39.330Z,15.80
2022-10-14T21:46:14.141Z,15.80
2022-10-14T21:48:42.236Z,15.80
2022-10-14T21:51:17.505Z,15.80
2022-10-14T21:53:46.005Z,15.90
2022-10-14T21:56:15.051Z,15.80
2022-10-14T21:58:43.005Z,15.80
2022-10-14T22:01:15.545Z,15.80
2022-10-14T22:03:43.832Z,15.80
2022-10-14T22:06:16.645Z,15.80
2022-10-14T22:08:46.543Z,15.90
2022-10-14T22:11:34.158Z,15.80
2022-10-14T22:14:03.912Z,15.80
2022-10-14T22:16:30.877Z,15.80
2022-10-14T22:19:00.143Z,15.70
2022-10-14T22:21:29.041Z,15.80
2022-10-14T22:23:56.164Z,15.80
2022-10-14T22:26:24.448Z,15.80
2022-10-14T22:29:01.665Z,15.80
2022-10-14T22:31:29.767Z,15.70
2022-10-14T22:33:56.570Z,15.70
2022-10-14T22:36:25.908Z,15.70
2022-10-14T22:38:53.797Z,15.80
2022-10-14T22:41:21.914Z,15.80
2022-10-14T22:43:50.947Z,15.80
2022-10-14T22:46:20.377Z,15.80
2022-10-14T22:48:56.079Z,15.80
2022-10-14T22:51:35.279Z,15.80
2022-10-14T22:54:03.147Z,15.90
2022-10-14T22:56:31.255Z,15.90
2022-10-14T22:59:06.934Z,15.90
2022-10-14T23:01:34.657Z,15.90
2022-10-14T23:04:01.773Z,15.90
2022-10-14T23:06:29.999Z,15.80
2022-10-14T23:08:57.745Z,15.80
2022-10-14T23:11:25.387Z,15.70
2022-10-14T23:13:53.077Z,15.70
2022-10-14T23:16:25.938Z,15.70
2022-10-14T23:18:53.325Z,15.70
2022-10-14T23:21:23.591Z,15.70
2022-10-14T23:23:51.607Z,15.70
2022-10-14T23:26:21.552Z,15.70
2022-10-14T23:28:53.580Z,15.70
2022-10-14T23:31:23.081Z,15.60
2022-10-14T23:33:52.316Z,15.60
2022-10-14T23:36:20.895Z,15.70
2022-10-14T23:38:48.061Z,15.60
2022-10-14T23:41:15.282Z,15.50
2022-10-14T23:43:43.299Z,15.50
2022-10-14T23:46:10.293Z,15.40
2022-10-14T23:48:37.624Z,15.40
2022-10-14T23:51:05.245Z,15.40
2022-10-14T23:53:32.489Z,15.30
2022-10-14T23:56:00.251Z,15.30
2022-10-14T23:58:29.581Z,15.30
